METAR Data
IDs: Format: Raw Decoded Include TAF

Data at: 0019 UTC 05 Jul 2022

KTEW 050015Z AUTO 00000KT 10SM CLR 27/17 A3000 RMK AO2 T02710166